sensor_id;sensor_type;location;lat;lon;timestamp;temperature;humidity
935;DHT22;454;53.254;10.400;2022-09-01T04:01:29;12.30;99.90
935;DHT22;454;53.254;10.400;2022-09-01T04:03:58;12.30;99.90
935;DHT22;454;53.254;10.400;2022-09-01T04:06:25;12.30;99.90
935;DHT22;454;53.254;10.400;2022-09-01T04:08:54;12.30;99.90
935;DHT22;454;53.254;10.400;2022-09-01T04:11:27;12.20;99.90
935;DHT22;454;53.254;10.400;2022-09-01T04:13:54;12.20;99.90
935;DHT22;454;53.254;10.400;2022-09-01T04:16:22;12.20;99.90
935;DHT22;454;53.254;10.400;2022-09-01T04:19:09;12.20;99.90
935;DHT22;454;53.254;10.400;2022-09-01T04:21:44;12.20;99.90
935;DHT22;454;53.254;10.400;2022-09-01T04:24:12;12.20;99.90
935;DHT22;454;53.254;10.400;2022-09-01T04:26:39;12.20;99.90
935;DHT22;454;53.254;10.400;2022-09-01T04:29:07;12.20;99.90
935;DHT22;454;53.254;10.400;2022-09-01T04:31:36;12.20;99.90
935;DHT22;454;53.254;10.400;2022-09-01T04:34:04;12.10;99.90
935;DHT22;454;53.254;10.400;2022-09-01T04:36:40;12.10;99.90
935;DHT22;454;53.254;10.400;2022-09-01T04:39:09;12.10;99.90
935;DHT22;454;53.254;10.400;2022-09-01T04:41:39;12.10;99.90
935;DHT22;454;53.254;10.400;2022-09-01T04:44:07;12.10;99.90
935;DHT22;454;53.254;10.400;2022-09-01T04:46:37;12.00;99.90
935;DHT22;454;53.254;10.400;2022-09-01T04:49:08;12.00;99.90
935;DHT22;454;53.254;10.400;2022-09-01T04:51:37;12.00;99.90
935;DHT22;454;53.254;10.400;2022-09-01T04:54:06;12.00;99.90
935;DHT22;454;53.254;10.400;2022-09-01T04:56:37;12.00;99.90
935;DHT22;454;53.254;10.400;2022-09-01T04:59:03;12.10;99.90
935;DHT22;454;53.254;10.400;2022-09-01T05:01:34;12.10;99.90
935;DHT22;454;53.254;10.400;2022-09-01T05:04:08;12.10;99.90
935;DHT22;454;53.254;10.400;2022-09-01T05:06:38;12.10;99.90
935;DHT22;454;53.254;10.400;2022-09-01T05:09:07;12.10;99.90
935;DHT22;454;53.254;10.400;2022-09-01T05:11:36;12.20;99.90
935;DHT22;454;53.254;10.400;2022-09-01T05:14:03;12.20;99.90
935;DHT22;454;53.254;10.400;2022-09-01T05:16:31;12.20;99.90
935;DHT22;454;53.254;10.400;2022-09-01T05:19:00;12.20;99.90
935;DHT22;454;53.254;10.400;2022-09-01T05:21:28;12.30;99.90
935;DHT22;454;53.254;10.400;2022-09-01T05:23:56;12.30;99.90
935;DHT22;454;53.254;10.400;2022-09-01T05:26:28;12.40;99.90
935;DHT22;454;53.254;10.400;2022-09-01T05:28:58;12.40;99.90
935;DHT22;454;53.254;10.400;2022-09-01T05:31:27;12.50;99.90
935;DHT22;454;53.254;10.400;2022-09-01T05:34:02;12.50;99.90
935;DHT22;454;53.254;10.400;2022-09-01T05:36:30;12.60;99.90
935;DHT22;454;53.254;10.400;2022-09-01T05:38:58;12.60;99.90
935;DHT22;454;53.254;10.400;2022-09-01T05:41:26;12.70;99.90
935;DHT22;454;53.254;10.400;2022-09-01T05:43:54;12.70;99.90
935;DHT22;454;53.254;10.400;2022-09-01T05:46:22;12.80;99.90
935;DHT22;454;53.254;10.400;2022-09-01T05:48:52;12.80;99.90
935;DHT22;454;53.254;10.400;2022-09-01T05:51:21;12.90;99.90
935;DHT22;454;53.254;10.400;2022-09-01T05:53:51;12.90;99.90
935;DHT22;454;53.254;10.400;2022-09-01T05:56:20;12.90;99.90
935;DHT22;454;53.254;10.400;2022-09-01T05:58:49;13.00;99.90
935;DHT22;454;53.254;10.400;2022-09-01T06:01:19;13.00;99.90
935;DHT22;454;53.254;10.400;2022-09-01T06:03:47;13.00;99.90
935;DHT22;454;53.254;10.400;2022-09-01T06:06:15;13.10;99.90
935;DHT22;454;53.254;10.400;2022-09-01T06:08:42;13.10;99.90
935;DHT22;454;53.254;10.400;2022-09-01T06:11:13;13.20;99.90
935;DHT22;454;53.254;10.400;2022-09-01T06:13:42;13.20;99.90
935;DHT22;454;53.254;10.400;2022-09-01T06:16:13;13.30;99.90
935;DHT22;454;53.254;10.400;2022-09-01T06:18:42;13.30;99.90
935;DHT22;454;53.254;10.400;2022-09-01T06:21:10;13.40;99.90
935;DHT22;454;53.254;10.400;2022-09-01T06:23:39;13.40;99.90
935;DHT22;454;53.254;10.400;2022-09-01T06:26:14;13.50;99.90
935;DHT22;454;53.254;10.400;2022-09-01T06:28:42;13.50;99.90
935;DHT22;454;53.254;10.400;2022-09-01T06:31:08;13.60;99.90
935;DHT22;454;53.254;10.400;2022-09-01T06:33:38;13.70;99.90
935;DHT22;454;53.254;10.400;2022-09-01T06:36:05;13.80;99.90
935;DHT22;454;53.254;10.400;2022-09-01T06:38:34;13.80;99.90
935;DHT22;454;53.254;10.400;2022-09-01T06:41:03;13.90;99.90
935;DHT22;454;53.254;10.400;2022-09-01T06:43:30;14.00;99.90
935;DHT22;454;53.254;10.400;2022-09-01T06:46:00;14.00;99.90
935;DHT22;454;53.254;10.400;2022-09-01T06:48:27;14.10;99.90
935;DHT22;454;53.254;10.400;2022-09-01T06:50:58;14.20;99.90
935;DHT22;454;53.254;10.400;2022-09-01T06:53:25;14.30;99.90
935;DHT22;454;53.254;10.400;2022-09-01T06:55:53;14.30;99.90
935;DHT22;454;53.254;10.400;2022-09-01T06:58:20;14.40;99.90
935;DHT22;454;53.254;10.400;2022-09-01T07:00:47;14.50;99.90
935;DHT22;454;53.254;10.400;2022-09-01T07:03:14;14.60;99.90
935;DHT22;454;53.254;10.400;2022-09-01T07:05:44;14.70;99.90
935;DHT22;454;53.254;10.400;2022-09-01T07:08:14;14.80;99.90
935;DHT22;454;53.254;10.400;2022-09-01T07:10:45;14.90;99.90
935;DHT22;454;53.254;10.400;2022-09-01T07:13:16;14.90;99.90
935;DHT22;454;53.254;10.400;2022-09-01T07:15:44;15.00;99.90
935;DHT22;454;53.254;10.400;2022-09-01T07:18:15;15.10;99.90
935;DHT22;454;53.254;10.400;2022-09-01T07:20:42;15.30;99.90
935;DHT22;454;53.254;10.400;2022-09-01T07:23:14;15.40;99.90
935;DHT22;454;53.254;10.400;2022-09-01T07:25:44;15.50;99.90
935;DHT22;454;53.254;10.400;2022-09-01T07:28:13;15.60;99.90
935;DHT22;454;53.254;10.400;2022-09-01T07:30:42;15.80;99.90
935;DHT22;454;53.254;10.400;2022-09-01T07:33:10;15.90;99.90
935;DHT22;454;53.254;10.400;2022-09-01T07:35:39;16.00;99.90
935;DHT22;454;53.254;10.400;2022-09-01T07:38:06;16.10;99.90
935;DHT22;454;53.254;10.400;2022-09-01T07:40:36;16.30;99.90
935;DHT22;454;53.254;10.400;2022-09-01T07:43:04;16.40;99.90
935;DHT22;454;53.254;10.400;2022-09-01T07:45:33;16.50;99.90
935;DHT22;454;53.254;10.400;2022-09-01T07:48:04;16.60;99.90
935;DHT22;454;53.254;10.400;2022-09-01T07:50:32;16.60;99.90
935;DHT22;454;53.254;10.400;2022-09-01T07:52:59;16.80;99.90
935;DHT22;454;53.254;10.400;2022-09-01T07:55:26;16.90;99.90
935;DHT22;454;53.254;10.400;2022-09-01T07:57:54;17.00;99.90
935;DHT22;454;53.254;10.400;2022-09-01T08:00:23;17.10;99.90
935;DHT22;454;53.254;10.400;2022-09-01T08:02:49;17.20;99.90
935;DHT22;454;53.254;10.400;2022-09-01T08:05:17;17.30;99.90
935;DHT22;454;53.254;10.400;2022-09-01T08:07:47;17.50;99.90
935;DHT22;454;53.254;10.400;2022-09-01T08:10:15;17.60;99.90
935;DHT22;454;53.254;10.400;2022-09-01T08:12:42;17.70;99.90
935;DHT22;454;53.254;10.400;2022-09-01T08:15:10;17.70;99.90
935;DHT22;454;53.254;10.400;2022-09-01T08:17:38;17.80;99.90
935;DHT22;454;53.254;10.400;2022-09-01T08:20:06;18.00;99.90
935;DHT22;454;53.254;10.400;2022-09-01T08:22:34;18.10;99.90
935;DHT22;454;53.254;10.400;2022-09-01T08:25:03;18.20;99.90
935;DHT22;454;53.254;10.400;2022-09-01T08:27:31;18.20;99.90
935;DHT22;454;53.254;10.400;2022-09-01T08:29:58;18.30;99.90
935;DHT22;454;53.254;10.400;2022-09-01T08:32:26;18.40;99.90
935;DHT22;454;53.254;10.400;2022-09-01T08:34:53;18.40;99.90
935;DHT22;454;53.254;10.400;2022-09-01T08:37:21;18.50;99.90
935;DHT22;454;53.254;10.400;2022-09-01T08:39:48;18.60;99.90
935;DHT22;454;53.254;10.400;2022-09-01T08:42:22;18.60;99.90
935;DHT22;454;53.254;10.400;2022-09-01T08:44:57;18.70;99.90
935;DHT22;454;53.254;10.400;2022-09-01T08:47:29;18.70;99.90
935;DHT22;454;53.254;10.400;2022-09-01T08:49:57;18.80;99.90
935;DHT22;454;53.254;10.400;2022-09-01T08:52:29;18.90;99.90
935;DHT22;454;53.254;10.400;2022-09-01T08:55:00;18.90;99.90
935;DHT22;454;53.254;10.400;2022-09-01T08:57:32;19.00;99.90
935;DHT22;454;53.254;10.400;2022-09-01T08:59:59;19.00;99.90
935;DHT22;454;53.254;10.400;2022-09-01T09:02:36;19.20;99.90
935;DHT22;454;53.254;10.400;2022-09-01T09:05:08;19.20;99.90
935;DHT22;454;53.254;10.400;2022-09-01T09:08:08;19.20;99.90
935;DHT22;454;53.254;10.400;2022-09-01T09:10:42;19.20;99.90
935;DHT22;454;53.254;10.400;2022-09-01T09:13:17;19.20;99.90
935;DHT22;454;53.254;10.400;2022-09-01T09:15:53;19.20;99.90
935;DHT22;454;53.254;10.400;2022-09-01T09:18:40;19.40;99.90
935;DHT22;454;53.254;10.400;2022-09-01T09:21:13;19.40;99.90
935;DHT22;454;53.254;10.400;2022-09-01T09:23:44;19.50;99.90
935;DHT22;454;53.254;10.400;2022-09-01T09:26:12;19.60;99.90
935;DHT22;454;53.254;10.400;2022-09-01T09:28:38;19.60;99.90
935;DHT22;454;53.254;10.400;2022-09-01T09:31:25;19.60;99.90
935;DHT22;454;53.254;10.400;2022-09-01T09:33:53;19.70;99.90
935;DHT22;454;53.254;10.400;2022-09-01T09:36:22;19.80;99.90
935;DHT22;454;53.254;10.400;2022-09-01T09:39:04;19.90;99.90
935;DHT22;454;53.254;10.400;2022-09-01T09:41:31;19.90;99.90
935;DHT22;454;53.254;10.400;2022-09-01T09:44:04;19.90;99.90
935;DHT22;454;53.254;10.400;2022-09-01T09:46:34;20.00;99.90
935;DHT22;454;53.254;10.400;2022-09-01T09:49:09;20.00;99.90
935;DHT22;454;53.254;10.400;2022-09-01T09:51:37;20.10;99.90
935;DHT22;454;53.254;10.400;2022-09-01T09:54:20;20.20;99.90
935;DHT22;454;53.254;10.400;2022-09-01T09:56:48;20.30;99.90
935;DHT22;454;53.254;10.400;2022-09-01T09:59:25;20.30;99.90
935;DHT22;454;53.254;10.400;2022-09-01T10:01:56;20.30;99.90
935;DHT22;454;53.254;10.400;2022-09-01T10:04:36;20.30;99.90
935;DHT22;454;53.254;10.400;2022-09-01T10:07:22;20.40;99.90
935;DHT22;454;53.254;10.400;2022-09-01T10:09:50;20.40;99.90
935;DHT22;454;53.254;10.400;2022-09-01T10:12:17;20.30;99.90
935;DHT22;454;53.254;10.400;2022-09-01T10:14:49;20.40;99.90
935;DHT22;454;53.254;10.400;2022-09-01T10:17:22;20.50;99.90
935;DHT22;454;53.254;10.400;2022-09-01T10:19:53;20.60;99.90
935;DHT22;454;53.254;10.400;2022-09-01T10:22:22;20.60;99.90
935;DHT22;454;53.254;10.400;2022-09-01T10:24:49;20.60;99.90
935;DHT22;454;53.254;10.400;2022-09-01T10:27:19;20.60;99.90
935;DHT22;454;53.254;10.400;2022-09-01T10:29:51;20.60;99.90
935;DHT22;454;53.254;10.400;2022-09-01T10:32:23;20.60;99.90
935;DHT22;454;53.254;10.400;2022-09-01T10:34:52;20.70;99.70
935;DHT22;454;53.254;10.400;2022-09-01T10:37:19;20.60;99.50
935;DHT22;454;53.254;10.400;2022-09-01T10:40:11;20.50;99.90
935;DHT22;454;53.254;10.400;2022-09-01T10:42:38;20.60;99.90
935;DHT22;454;53.254;10.400;2022-09-01T10:45:15;20.80;99.60
935;DHT22;454;53.254;10.400;2022-09-01T10:47:43;20.90;99.00
935;DHT22;454;53.254;10.400;2022-09-01T10:50:26;21.00;98.50
935;DHT22;454;53.254;10.400;2022-09-01T10:53:05;21.20;98.80
935;DHT22;454;53.254;10.400;2022-09-01T10:55:37;21.30;98.00
935;DHT22;454;53.254;10.400;2022-09-01T11:00:54;21.60;97.20
935;DHT22;454;53.254;10.400;2022-09-01T11:06:53;21.80;97.30
935;DHT22;454;53.254;10.400;2022-09-01T11:09:25;21.50;97.40
935;DHT22;454;53.254;10.400;2022-09-01T11:12:25;21.30;97.10
935;DHT22;454;53.254;10.400;2022-09-01T11:14:56;21.10;97.20
935;DHT22;454;53.254;10.400;2022-09-01T11:17:24;21.30;97.30
935;DHT22;454;53.254;10.400;2022-09-01T11:19:58;21.50;97.60
935;DHT22;454;53.254;10.400;2022-09-01T11:22:32;21.50;97.50
935;DHT22;454;53.254;10.400;2022-09-01T11:31:03;21.20;97.30
935;DHT22;454;53.254;10.400;2022-09-01T11:33:48;21.00;97.70
935;DHT22;454;53.254;10.400;2022-09-01T11:36:25;20.80;97.80
935;DHT22;454;53.254;10.400;2022-09-01T11:39:06;20.70;97.00
935;DHT22;454;53.254;10.400;2022-09-01T11:41:45;20.60;97.50
935;DHT22;454;53.254;10.400;2022-09-01T11:44:22;20.60;98.20
935;DHT22;454;53.254;10.400;2022-09-01T11:46:50;20.70;98.20
935;DHT22;454;53.254;10.400;2022-09-01T11:49:26;20.90;97.70
935;DHT22;454;53.254;10.400;2022-09-01T11:51:54;21.20;97.60
935;DHT22;454;53.254;10.400;2022-09-01T11:54:23;21.40;97.60
935;DHT22;454;53.254;10.400;2022-09-01T11:56:50;21.40;95.30
935;DHT22;454;53.254;10.400;2022-09-01T11:59:33;21.40;94.70
935;DHT22;454;53.254;10.400;2022-09-01T12:02:00;21.40;94.80
935;DHT22;454;53.254;10.400;2022-09-01T12:04:31;21.50;95.20
935;DHT22;454;53.254;10.400;2022-09-01T12:07:00;21.50;95.60
935;DHT22;454;53.254;10.400;2022-09-01T12:09:33;21.60;95.90
935;DHT22;454;53.254;10.400;2022-09-01T12:12:01;21.60;95.10
935;DHT22;454;53.254;10.400;2022-09-01T12:14:28;21.70;95.20
935;DHT22;454;53.254;10.400;2022-09-01T12:16:57;21.70;95.10
935;DHT22;454;53.254;10.400;2022-09-01T12:19:26;21.70;94.70
935;DHT22;454;53.254;10.400;2022-09-01T12:21:59;21.90;95.30
935;DHT22;454;53.254;10.400;2022-09-01T12:24:29;22.00;94.90
935;DHT22;454;53.254;10.400;2022-09-01T12:26:58;21.90;94.70
935;DHT22;454;53.254;10.400;2022-09-01T12:29:26;22.00;94.30
935;DHT22;454;53.254;10.400;2022-09-01T12:31:53;22.00;94.60
935;DHT22;454;53.254;10.400;2022-09-01T12:34:25;22.10;94.20
935;DHT22;454;53.254;10.400;2022-09-01T12:37:05;22.20;94.00
935;DHT22;454;53.254;10.400;2022-09-01T12:39:33;22.30;94.30
935;DHT22;454;53.254;10.400;2022-09-01T12:42:05;22.50;92.70
935;DHT22;454;53.254;10.400;2022-09-01T12:44:42;22.70;92.40
935;DHT22;454;53.254;10.400;2022-09-01T12:47:12;22.80;91.70
935;DHT22;454;53.254;10.400;2022-09-01T12:49:41;22.90;92.00
935;DHT22;454;53.254;10.400;2022-09-01T12:52:13;23.00;91.20
935;DHT22;454;53.254;10.400;2022-09-01T12:54:43;23.00;91.30
935;DHT22;454;53.254;10.400;2022-09-01T12:57:19;22.90;91.00
935;DHT22;454;53.254;10.400;2022-09-01T13:00:05;22.80;91.20
935;DHT22;454;53.254;10.400;2022-09-01T13:02:34;22.80;91.80
935;DHT22;454;53.254;10.400;2022-09-01T13:05:27;22.80;91.70
935;DHT22;454;53.254;10.400;2022-09-01T13:07:56;23.00;91.10
935;DHT22;454;53.254;10.400;2022-09-01T13:10:26;23.00;91.20
935;DHT22;454;53.254;10.400;2022-09-01T13:12:55;23.20;91.90
935;DHT22;454;53.254;10.400;2022-09-01T13:15:23;23.10;91.80
935;DHT22;454;53.254;10.400;2022-09-01T13:17:51;23.00;92.20
935;DHT22;454;53.254;10.400;2022-09-01T13:20:18;22.60;92.40
935;DHT22;454;53.254;10.400;2022-09-01T13:22:45;22.50;92.90
935;DHT22;454;53.254;10.400;2022-09-01T13:25:13;22.20;93.40
935;DHT22;454;53.254;10.400;2022-09-01T13:27:40;22.20;93.50
935;DHT22;454;53.254;10.400;2022-09-01T13:30:12;22.20;93.40
935;DHT22;454;53.254;10.400;2022-09-01T13:32:40;22.10;93.40
935;DHT22;454;53.254;10.400;2022-09-01T13:35:08;22.00;93.70
935;DHT22;454;53.254;10.400;2022-09-01T13:37:34;22.00;94.00
935;DHT22;454;53.254;10.400;2022-09-01T13:40:03;22.00;94.30
935;DHT22;454;53.254;10.400;2022-09-01T13:42:30;21.90;94.50
935;DHT22;454;53.254;10.400;2022-09-01T13:44:57;22.00;94.50
935;DHT22;454;53.254;10.400;2022-09-01T13:47:25;22.00;94.70
935;DHT22;454;53.254;10.400;2022-09-01T13:49:51;22.00;95.00
935;DHT22;454;53.254;10.400;2022-09-01T13:52:18;22.00;94.60
935;DHT22;454;53.254;10.400;2022-09-01T13:54:46;22.10;94.90
935;DHT22;454;53.254;10.400;2022-09-01T13:57:12;22.00;94.50
935;DHT22;454;53.254;10.400;2022-09-01T13:59:40;21.90;94.90
935;DHT22;454;53.254;10.400;2022-09-01T14:02:07;21.80;95.00
935;DHT22;454;53.254;10.400;2022-09-01T14:04:36;21.80;95.60
935;DHT22;454;53.254;10.400;2022-09-01T14:07:03;21.70;95.60
935;DHT22;454;53.254;10.400;2022-09-01T14:09:30;21.60;96.00
935;DHT22;454;53.254;10.400;2022-09-01T14:11:58;21.50;96.30
935;DHT22;454;53.254;10.400;2022-09-01T14:14:25;21.40;96.20
935;DHT22;454;53.254;10.400;2022-09-01T14:16:51;21.30;95.70
935;DHT22;454;53.254;10.400;2022-09-01T14:19:18;21.20;95.90
935;DHT22;454;53.254;10.400;2022-09-01T14:21:46;21.20;95.70
935;DHT22;454;53.254;10.400;2022-09-01T14:24:14;21.30;95.40
935;DHT22;454;53.254;10.400;2022-09-01T14:26:45;21.50;95.70
935;DHT22;454;53.254;10.400;2022-09-01T14:29:12;21.60;95.60
935;DHT22;454;53.254;10.400;2022-09-01T14:31:39;21.80;95.80
935;DHT22;454;53.254;10.400;2022-09-01T14:34:06;21.80;96.10
935;DHT22;454;53.254;10.400;2022-09-01T14:36:34;21.90;95.70
935;DHT22;454;53.254;10.400;2022-09-01T14:39:02;22.00;96.60
935;DHT22;454;53.254;10.400;2022-09-01T14:41:29;22.10;96.70
935;DHT22;454;53.254;10.400;2022-09-01T14:43:56;22.10;96.60
935;DHT22;454;53.254;10.400;2022-09-01T14:46:27;22.00;96.70
935;DHT22;454;53.254;10.400;2022-09-01T14:48:55;22.00;96.60
935;DHT22;454;53.254;10.400;2022-09-01T14:51:24;21.90;97.20
935;DHT22;454;53.254;10.400;2022-09-01T14:53:52;21.80;97.70
935;DHT22;454;53.254;10.400;2022-09-01T14:56:21;21.60;97.90
935;DHT22;454;53.254;10.400;2022-09-01T14:58:48;21.40;98.20
935;DHT22;454;53.254;10.400;2022-09-01T15:01:18;21.30;98.50
935;DHT22;454;53.254;10.400;2022-09-01T15:03:46;21.20;99.10
935;DHT22;454;53.254;10.400;2022-09-01T15:06:13;21.30;98.70
935;DHT22;454;53.254;10.400;2022-09-01T15:08:41;21.30;98.80
935;DHT22;454;53.254;10.400;2022-09-01T15:11:09;21.40;98.70
935;DHT22;454;53.254;10.400;2022-09-01T15:13:38;21.50;97.80
935;DHT22;454;53.254;10.400;2022-09-01T15:16:12;21.60;97.60
935;DHT22;454;53.254;10.400;2022-09-01T15:18:39;21.60;97.00
935;DHT22;454;53.254;10.400;2022-09-01T15:21:06;21.60;96.80
935;DHT22;454;53.254;10.400;2022-09-01T15:23:34;21.60;96.90
935;DHT22;454;53.254;10.400;2022-09-01T15:26:00;21.60;97.20
935;DHT22;454;53.254;10.400;2022-09-01T15:28:27;21.70;97.50
935;DHT22;454;53.254;10.400;2022-09-01T15:30:55;21.60;97.30
935;DHT22;454;53.254;10.400;2022-09-01T15:33:24;21.70;97.50
935;DHT22;454;53.254;10.400;2022-09-01T15:35:51;21.70;97.80
935;DHT22;454;53.254;10.400;2022-09-01T15:38:17;21.70;98.10
935;DHT22;454;53.254;10.400;2022-09-01T15:40:45;21.70;97.60
935;DHT22;454;53.254;10.400;2022-09-01T15:43:14;21.70;97.80
935;DHT22;454;53.254;10.400;2022-09-01T15:45:40;21.60;97.40
935;DHT22;454;53.254;10.400;2022-09-01T15:48:09;21.60;97.20
935;DHT22;454;53.254;10.400;2022-09-01T15:50:35;21.60;97.50
935;DHT22;454;53.254;10.400;2022-09-01T15:53:03;21.60;97.20
935;DHT22;454;53.254;10.400;2022-09-01T15:55:38;21.70;97.00
935;DHT22;454;53.254;10.400;2022-09-01T15:58:06;21.70;96.70
935;DHT22;454;53.254;10.400;2022-09-01T16:00:33;21.80;96.80
935;DHT22;454;53.254;10.400;2022-09-01T16:03:00;21.70;96.20
935;DHT22;454;53.254;10.400;2022-09-01T16:05:28;21.70;96.30
935;DHT22;454;53.254;10.400;2022-09-01T16:07:55;21.60;96.00
935;DHT22;454;53.254;10.400;2022-09-01T16:10:22;21.70;96.10
935;DHT22;454;53.254;10.400;2022-09-01T16:12:49;21.70;95.50
935;DHT22;454;53.254;10.400;2022-09-01T16:15:18;21.70;95.80
935;DHT22;454;53.254;10.400;2022-09-01T16:17:56;21.60;95.30
935;DHT22;454;53.254;10.400;2022-09-01T16:20:35;21.60;95.60
935;DHT22;454;53.254;10.400;2022-09-01T16:23:11;21.50;96.20
935;DHT22;454;53.254;10.400;2022-09-01T16:25:39;21.40;96.90
935;DHT22;454;53.254;10.400;2022-09-01T16:28:12;21.40;97.20
935;DHT22;454;53.254;10.400;2022-09-01T16:30:44;21.40;97.30
935;DHT22;454;53.254;10.400;2022-09-01T16:33:12;21.40;97.50
935;DHT22;454;53.254;10.400;2022-09-01T16:35:52;21.40;97.50
935;DHT22;454;53.254;10.400;2022-09-01T16:38:29;21.40;97.70
935;DHT22;454;53.254;10.400;2022-09-01T16:41:04;21.40;98.30
935;DHT22;454;53.254;10.400;2022-09-01T16:43:37;21.30;98.00
935;DHT22;454;53.254;10.400;2022-09-01T16:46:09;21.30;98.00
935;DHT22;454;53.254;10.400;2022-09-01T16:48:41;21.20;98.10
935;DHT22;454;53.254;10.400;2022-09-01T16:51:18;21.20;98.50
935;DHT22;454;53.254;10.400;2022-09-01T16:53:58;21.10;98.30
935;DHT22;454;53.254;10.400;2022-09-01T16:56:31;21.10;98.60
935;DHT22;454;53.254;10.400;2022-09-01T16:59:10;21.00;98.50
935;DHT22;454;53.254;10.400;2022-09-01T17:01:46;20.90;99.10
935;DHT22;454;53.254;10.400;2022-09-01T17:04:30;20.80;98.80
935;DHT22;454;53.254;10.400;2022-09-01T17:07:04;20.80;99.10
935;DHT22;454;53.254;10.400;2022-09-01T17:09:38;20.70;99.20
935;DHT22;454;53.254;10.400;2022-09-01T17:12:20;20.60;99.10
935;DHT22;454;53.254;10.400;2022-09-01T17:14:53;20.60;99.30
935;DHT22;454;53.254;10.400;2022-09-01T17:17:29;20.50;99.40
935;DHT22;454;53.254;10.400;2022-09-01T17:19:56;20.50;99.30
935;DHT22;454;53.254;10.400;2022-09-01T17:22:24;20.40;99.20
935;DHT22;454;53.254;10.400;2022-09-01T17:24:55;20.30;99.40
935;DHT22;454;53.254;10.400;2022-09-01T17:27:26;20.30;99.70
935;DHT22;454;53.254;10.400;2022-09-01T17:29:56;20.20;99.90
935;DHT22;454;53.254;10.400;2022-09-01T17:33:05;20.20;99.90
935;DHT22;454;53.254;10.400;2022-09-01T17:35:38;20.10;99.90
935;DHT22;454;53.254;10.400;2022-09-01T17:38:17;20.00;99.90
935;DHT22;454;53.254;10.400;2022-09-01T17:40:56;20.00;99.90
935;DHT22;454;53.254;10.400;2022-09-01T17:43:29;19.90;99.90
935;DHT22;454;53.254;10.400;2022-09-01T17:46:01;19.90;99.90
935;DHT22;454;53.254;10.400;2022-09-01T17:48:38;19.80;99.90
935;DHT22;454;53.254;10.400;2022-09-01T17:51:13;19.70;99.90
935;DHT22;454;53.254;10.400;2022-09-01T17:53:50;19.70;99.90
935;DHT22;454;53.254;10.400;2022-09-01T17:56:30;19.60;99.90
935;DHT22;454;53.254;10.400;2022-09-01T17:59:04;19.50;99.90
935;DHT22;454;53.254;10.400;2022-09-01T18:01:40;19.50;99.90
935;DHT22;454;53.254;10.400;2022-09-01T18:04:31;19.40;99.90
935;DHT22;454;53.254;10.400;2022-09-01T18:07:08;19.30;99.90
935;DHT22;454;53.254;10.400;2022-09-01T18:09:42;19.30;99.90
935;DHT22;454;53.254;10.400;2022-09-01T18:12:14;19.20;99.90
935;DHT22;454;53.254;10.400;2022-09-01T18:14:51;19.10;99.90
935;DHT22;454;53.254;10.400;2022-09-01T18:17:24;19.10;99.90
935;DHT22;454;53.254;10.400;2022-09-01T18:19:58;19.00;99.90
935;DHT22;454;53.254;10.400;2022-09-01T18:22:35;18.90;99.90
935;DHT22;454;53.254;10.400;2022-09-01T18:25:07;18.90;99.90
935;DHT22;454;53.254;10.400;2022-09-01T18:27:35;18.80;99.90
935;DHT22;454;53.254;10.400;2022-09-01T18:30:07;18.70;99.90
935;DHT22;454;53.254;10.400;2022-09-01T18:32:40;18.70;99.90
935;DHT22;454;53.254;10.400;2022-09-01T18:35:24;18.60;99.90
935;DHT22;454;53.254;10.400;2022-09-01T18:38:22;18.50;99.90
935;DHT22;454;53.254;10.400;2022-09-01T18:41:23;18.50;99.90
935;DHT22;454;53.254;10.400;2022-09-01T18:43:59;18.40;99.90
935;DHT22;454;53.254;10.400;2022-09-01T18:46:34;18.30;99.90
935;DHT22;454;53.254;10.400;2022-09-01T18:49:11;18.30;99.90
935;DHT22;454;53.254;10.400;2022-09-01T18:51:54;18.20;99.90
935;DHT22;454;53.254;10.400;2022-09-01T18:54:26;18.20;99.90
935;DHT22;454;53.254;10.400;2022-09-01T18:56:59;18.10;99.90
935;DHT22;454;53.254;10.400;2022-09-01T18:59:52;18.00;99.90
935;DHT22;454;53.254;10.400;2022-09-01T19:02:53;18.00;99.90
935;DHT22;454;53.254;10.400;2022-09-01T19:05:29;17.90;99.90
935;DHT22;454;53.254;10.400;2022-09-01T19:08:03;17.80;99.90
935;DHT22;454;53.254;10.400;2022-09-01T19:10:37;17.80;99.90
935;DHT22;454;53.254;10.400;2022-09-01T19:13:11;17.70;99.90
935;DHT22;454;53.254;10.400;2022-09-01T19:15:48;17.70;99.90
935;DHT22;454;53.254;10.400;2022-09-01T19:18:21;17.60;99.90
935;DHT22;454;53.254;10.400;2022-09-01T19:20:54;17.60;99.90
935;DHT22;454;53.254;10.400;2022-09-01T19:23:26;17.50;99.90
935;DHT22;454;53.254;10.400;2022-09-01T19:26:03;17.40;99.90
935;DHT22;454;53.254;10.400;2022-09-01T19:28:37;17.40;99.90
935;DHT22;454;53.254;10.400;2022-09-01T19:31:09;17.30;99.90
935;DHT22;454;53.254;10.400;2022-09-01T19:33:43;17.30;99.90
935;DHT22;454;53.254;10.400;2022-09-01T19:36:24;17.20;99.90
935;DHT22;454;53.254;10.400;2022-09-01T19:38:56;17.20;99.90
935;DHT22;454;53.254;10.400;2022-09-01T19:41:25;17.20;99.90
935;DHT22;454;53.254;10.400;2022-09-01T19:44:01;17.10;99.90
935;DHT22;454;53.254;10.400;2022-09-01T19:46:37;17.00;99.90
935;DHT22;454;53.254;10.400;2022-09-01T19:49:15;17.00;99.90
935;DHT22;454;53.254;10.400;2022-09-01T19:51:47;16.90;99.90
935;DHT22;454;53.254;10.400;2022-09-01T19:54:20;16.80;99.90
935;DHT22;454;53.254;10.400;2022-09-01T19:56:52;16.80;99.90
935;DHT22;454;53.254;10.400;2022-09-01T19:59:25;16.70;99.90
935;DHT22;454;53.254;10.400;2022-09-01T20:01:55;16.70;99.90
935;DHT22;454;53.254;10.400;2022-09-01T20:04:29;16.60;99.90
935;DHT22;454;53.254;10.400;2022-09-01T20:07:02;16.60;99.90
935;DHT22;454;53.254;10.400;2022-09-01T20:09:34;16.50;99.90
935;DHT22;454;53.254;10.400;2022-09-01T20:12:10;16.50;99.90
935;DHT22;454;53.254;10.400;2022-09-01T20:14:58;16.40;99.90
935;DHT22;454;53.254;10.400;2022-09-01T20:17:31;16.40;99.90
935;DHT22;454;53.254;10.400;2022-09-01T20:20:04;16.30;99.90
935;DHT22;454;53.254;10.400;2022-09-01T20:22:36;16.30;99.90
935;DHT22;454;53.254;10.400;2022-09-01T20:25:08;16.20;99.90
935;DHT22;454;53.254;10.400;2022-09-01T20:27:44;16.20;99.90
935;DHT22;454;53.254;10.400;2022-09-01T20:30:16;16.20;99.90
935;DHT22;454;53.254;10.400;2022-09-01T20:32:46;16.10;99.90
935;DHT22;454;53.254;10.400;2022-09-01T20:35:17;16.10;99.90
935;DHT22;454;53.254;10.400;2022-09-01T20:37:48;16.10;99.90
935;DHT22;454;53.254;10.400;2022-09-01T20:40:19;16.00;99.90
935;DHT22;454;53.254;10.400;2022-09-01T20:42:53;16.00;99.90
935;DHT22;454;53.254;10.400;2022-09-01T20:45:29;15.90;99.90
935;DHT22;454;53.254;10.400;2022-09-01T20:47:59;15.90;99.90
935;DHT22;454;53.254;10.400;2022-09-01T20:50:30;15.80;99.90
935;DHT22;454;53.254;10.400;2022-09-01T20:53:12;15.80;99.90
935;DHT22;454;53.254;10.400;2022-09-01T20:55:47;15.70;99.90
935;DHT22;454;53.254;10.400;2022-09-01T20:58:20;15.70;99.90
